Red Devil, Alaska
Current Conditions -  °F | °C
As of 11:16 PM on Thursday 23 Oct 2014 (Local Time) from PASL Reporting Station
Overcast Overcast  
Wind Chill: 21°   Ceiling: 800
Heat Index: 27°   Visibility: 9mi
Dew Point: 16°   Wind: 5mph
Humidity: 64%   Direction: 140°SE
Pressure: 29.81"   Gusts: NA
Location:  61.76°N, 157.35°W
Report Text: PASL 240716Z AUTO 14004KT 9SM OVC008 M03/M09 A2981 RMK AO1
Loading
Personal Weather Stations






























Interactive Weather Map
Tropical Storm Tracking
New forecast layout! Learn more

10-Day Weather Forecast

Advertisements
Track Severe Weather on mobile